Time;durP1;ratioP1;P1;durP2;ratioP2;P2;SDS_P1;SDS_P2;PMS_P1;PMS_P2;Temp;Humidity;BMP_temperature;BMP_pressure;BME280_temperature;BME280_humidity;BME280_pressure;Samples;Min_cycle;Max_cycle;Signal;HPM_P1;HPM_P2
2022/05/01 00:01:19;;;;;;;;;;;;;;;12.36;76.11;95513.13;4977747;28;983;-50
2022/05/01 00:03:45;;;;;;;;;;;;;;;12.36;76.43;95513.13;4977774;28;1022;-50
2022/05/01 00:06:11;;;;;;;;;;;;;;;12.35;76.62;95507.94;4977584;28;963;-50
2022/05/01 00:08:42;;;;;;;;;;;;;;;12.43;76.32;95506.13;4977402;28;970;-50
2022/05/01 00:11:08;;;;;;;;;;;;;;;12.55;75.95;95490.56;4977301;28;1911;-50
2022/05/01 00:13:35;;;;;;;;;;;;;;;12.40;76.61;95505.63;4976965;28;1057;-50
2022/05/01 00:16:02;;;;;;;;;;;;;;;12.42;76.48;95503.59;4977230;28;1041;-50
2022/05/01 00:18:28;;;;;;;;;;;;;;;12.59;75.57;95510.69;4976673;28;1089;-49
2022/05/01 00:20:54;;;;;;;;;;;;;;;12.76;75.00;95510.72;4977411;28;1034;-50
2022/05/01 00:23:20;;;;;;;;;;;;;;;12.86;74.80;95508.69;4977122;28;959;-50
2022/05/01 00:25:46;;;;;;;;;;;;;;;12.77;74.91;95507.88;4977168;28;1218;-50
2022/05/01 00:28:13;;;;;;;;;;;;;;;12.77;75.58;95507.03;4976729;28;1974;-50
2022/05/01 00:30:40;;;;;;;;;;;;;;;12.60;75.64;95498.13;4976703;28;1621;-50
2022/05/01 00:38:35;;;;;;;;;;;;;;;12.76;75.44;95502.66;4976577;28;1033;-50
2022/05/01 00:41:11;;;;;;;;;;;;;;;12.63;75.79;95495.94;4976782;28;992;-50
2022/05/01 00:43:56;;;;;;;;;;;;;;;12.48;75.91;95505.63;4976400;28;1017;-50
2022/05/01 00:46:23;;;;;;;;;;;;;;;12.57;76.59;95493.91;4976845;28;1257;-50
2022/05/01 00:48:50;;;;;;;;;;;;;;;12.74;75.53;95505.50;4976439;28;977;-50
2022/05/01 00:51:16;;;;;;;;;;;;;;;12.82;75.63;95507.34;4976597;28;1980;-50
2022/05/01 00:53:43;;;;;;;;;;;;;;;12.72;75.79;95504.84;4976366;28;1850;-50
2022/05/01 00:56:09;;;;;;;;;;;;;;;12.58;76.51;95506.34;4976465;28;1163;-49
2022/05/01 00:58:36;;;;;;;;;;;;;;;12.52;76.34;95501.63;4976274;28;1866;-49
2022/05/01 01:01:02;;;;;;;;;;;;;;;12.49;77.36;95501.94;4976788;28;964;-50
2022/05/01 01:03:28;;;;;;;;;;;;;;;12.59;76.30;95499.94;4976450;28;1029;-50
2022/05/01 01:05:54;;;;;;;;;;;;;;;12.61;75.26;95497.94;4976366;28;1024;-50
2022/05/01 01:08:21;;;;;;;;;;;;;;;12.58;75.98;95505.50;4976148;28;993;-50
2022/05/01 01:10:47;;;;;;;;;;;;;;;12.60;74.85;95504.31;4976255;28;1042;-50
2022/05/01 01:13:13;;;;;;;;;;;;;;;12.54;76.32;95493.41;4975982;28;1990;-50
2022/05/01 01:15:41;;;;;;;;;;;;;;;12.47;76.24;95504.78;4976083;28;1088;-50
2022/05/01 01:18:07;;;;;;;;;;;;;;;12.52;76.59;95495.41;4976078;28;997;-50
2022/05/01 01:20:36;;;;;;;;;;;;;;;12.55;75.73;95489.72;4975878;28;1028;-50
2022/05/01 01:23:03;;;;;;;;;;;;;;;12.65;75.13;95490.41;4975997;28;973;-50
2022/05/01 01:25:31;;;;;;;;;;;;;;;12.63;75.06;95493.25;4975682;28;1198;-50
2022/05/01 01:28:05;;;;;;;;;;;;;;;12.67;75.75;95491.94;4975883;28;1304;-50
2022/05/01 01:33:20;;;;;;;;;;;;;;;12.69;75.41;95483.69;4975566;28;1994;-50
2022/05/01 01:35:48;;;;;;;;;;;;;;;12.66;74.83;95482.19;4975672;28;1025;-50
2022/05/01 01:38:14;;;;;;;;;;;;;;;12.72;74.98;95482.53;4975899;28;993;-50
2022/05/01 01:40:42;;;;;;;;;;;;;;;12.82;75.27;95485.88;4975554;28;1876;-50
2022/05/01 01:43:10;;;;;;;;;;;;;;;12.83;74.94;95484.91;4974934;28;1057;-50
2022/05/01 01:45:36;;;;;;;;;;;;;;;12.84;75.37;95483.88;4975538;28;1119;-49
2022/05/01 01:48:28;;;;;;;;;;;;;;;12.76;75.91;95483.88;4975571;28;1021;-49
2022/05/01 01:50:54;;;;;;;;;;;;;;;12.76;76.20;95475.84;4972953;28;1708;-50
2022/05/01 01:53:21;;;;;;;;;;;;;;;12.72;76.07;95474.50;4975464;28;1911;-50
2022/05/01 01:55:47;;;;;;;;;;;;;;;12.67;76.79;95469.59;4975739;28;982;-50
2022/05/01 01:58:13;;;;;;;;;;;;;;;12.67;75.87;95472.28;4975503;28;965;-50
2022/05/01 02:00:39;;;;;;;;;;;;;;;12.66;76.03;95476.81;4975408;28;958;-50
2022/05/01 02:03:06;;;;;;;;;;;;;;;12.57;76.55;95475.13;4975250;28;966;-50
2022/05/01 02:05:34;;;;;;;;;;;;;;;12.44;77.19;95480.13;4974868;28;1033;-50
2022/05/01 02:08:00;;;;;;;;;;;;;;;12.37;76.21;95481.78;4975514;28;981;-50
2022/05/01 02:10:26;;;;;;;;;;;;;;;12.46;76.34;95481.66;4975197;28;1083;-50
2022/05/01 02:12:53;;;;;;;;;;;;;;;12.59;76.21;95486.53;4975165;28;1910;-49
2022/05/01 02:15:19;;;;;;;;;;;;;;;12.62;75.79;95486.22;4974816;28;1041;-49
2022/05/01 02:17:46;;;;;;;;;;;;;;;12.69;75.95;95484.56;4975079;28;954;-50
2022/05/01 02:20:12;;;;;;;;;;;;;;;12.70;76.19;95477.34;4974960;28;1057;-50
2022/05/01 02:22:42;;;;;;;;;;;;;;;12.66;76.96;95478.69;4975169;28;1019;-50
2022/05/01 02:25:09;;;;;;;;;;;;;;;12.45;77.42;95471.09;4974936;28;1163;-50
2022/05/01 02:27:35;;;;;;;;;;;;;;;12.41;78.18;95473.28;4974633;28;1230;-50
2022/05/01 02:30:02;;;;;;;;;;;;;;;12.52;76.80;95474.81;4974913;28;1033;-49
2022/05/01 02:32:29;;;;;;;;;;;;;;;12.57;77.16;95477.81;4975120;28;1902;-50
2022/05/01 02:34:55;;;;;;;;;;;;;;;12.55;77.31;95487.88;4974505;28;1038;-50
2022/05/01 02:37:21;;;;;;;;;;;;;;;12.52;77.30;95484.69;4974651;28;1029;-50
2022/05/01 02:39:47;;;;;;;;;;;;;;;12.43;77.89;95482.00;4974551;28;1057;-49
2022/05/01 02:42:13;;;;;;;;;;;;;;;12.36;77.76;95489.00;4974761;28;1036;-50
2022/05/01 02:44:39;;;;;;;;;;;;;;;12.39;77.63;95490.53;4974378;28;1092;-49
2022/05/01 02:47:05;;;;;;;;;;;;;;;12.41;77.38;95484.00;4974638;28;1041;-49
2022/05/01 02:49:32;;;;;;;;;;;;;;;12.42;77.55;95492.88;4974359;28;1053;-49
2022/05/01 02:51:58;;;;;;;;;;;;;;;12.40;77.59;95489.53;4974647;28;1910;-50
2022/05/01 02:54:24;;;;;;;;;;;;;;;12.26;77.91;95497.19;4974558;28;966;-50
2022/05/01 02:56:51;;;;;;;;;;;;;;;12.17;77.33;95492.81;4974586;28;1966;-50
2022/05/01 02:59:17;;;;;;;;;;;;;;;12.06;77.51;95496.59;4974240;28;1024;-50
2022/05/01 03:01:44;;;;;;;;;;;;;;;12.02;78.08;95491.75;4974387;28;1054;-50
2022/05/01 03:04:10;;;;;;;;;;;;;;;12.10;78.16;95497.13;4974629;28;985;-50
2022/05/01 03:06:36;;;;;;;;;;;;;;;12.23;77.76;95502.03;4974444;28;942;-50
2022/05/01 03:09:03;;;;;;;;;;;;;;;12.29;77.59;95502.25;4974368;28;1076;-50
2022/05/01 03:11:29;;;;;;;;;;;;;;;12.31;77.41;95499.38;4974107;28;2001;-50
2022/05/01 03:13:55;;;;;;;;;;;;;;;12.07;77.54;95500.16;4974407;28;1014;-50
2022/05/01 03:16:21;;;;;;;;;;;;;;;12.08;77.18;95504.50;4974275;28;951;-50
2022/05/01 03:24:19;;;;;;;;;;;;;;;12.30;75.75;95506.59;4974411;28;1044;-49
2022/05/01 03:26:48;;;;;;;;;;;;;;;12.30;76.97;95511.94;4973774;28;1185;-50
2022/05/01 03:29:14;;;;;;;;;;;;;;;12.33;76.86;95512.63;4974536;28;961;-50
2022/05/01 03:31:41;;;;;;;;;;;;;;;12.44;75.31;95510.47;4974130;28;1907;-50
2022/05/01 03:34:07;;;;;;;;;;;;;;;12.50;74.64;95512.53;4974312;28;1049;-49
2022/05/01 03:36:34;;;;;;;;;;;;;;;12.53;73.80;95515.88;4974150;28;958;-50
2022/05/01 03:39:00;;;;;;;;;;;;;;;12.54;74.23;95520.22;4974223;28;970;-50
2022/05/01 03:41:29;;;;;;;;;;;;;;;12.55;74.68;95511.19;4973793;28;1875;-49
2022/05/01 03:43:55;;;;;;;;;;;;;;;12.53;75.54;95507.81;4974270;28;1042;-50
2022/05/01 03:46:22;;;;;;;;;;;;;;;12.39;75.68;95509.31;4973844;28;1021;-50
2022/05/01 03:48:48;;;;;;;;;;;;;;;12.38;75.63;95515.66;4974074;28;1007;-50
2022/05/01 03:51:14;;;;;;;;;;;;;;;12.33;76.35;95512.63;4974027;28;1907;-49
2022/05/01 03:53:41;;;;;;;;;;;;;;;12.44;75.80;95515.84;4973944;28;1013;-49
2022/05/01 03:56:08;;;;;;;;;;;;;;;12.55;75.64;95513.88;4973721;28;967;-48
2022/05/01 03:58:34;;;;;;;;;;;;;;;12.55;74.88;95517.38;4973888;28;1009;-49
2022/05/01 04:01:00;;;;;;;;;;;;;;;12.58;75.88;95525.09;4973718;28;923;-49
2022/05/01 04:03:26;;;;;;;;;;;;;;;12.58;75.52;95525.09;4974030;28;1038;-48
2022/05/01 04:05:52;;;;;;;;;;;;;;;12.66;75.14;95525.13;4974626;28;996;-49
2022/05/01 04:08:18;;;;;;;;;;;;;;;12.77;75.29;95523.13;4977411;28;955;-49
2022/05/01 04:10:45;;;;;;;;;;;;;;;12.86;73.80;95530.16;4977686;28;965;-49
2022/05/01 04:13:12;;;;;;;;;;;;;;;12.84;75.06;95525.00;4977429;28;1906;-49
2022/05/01 04:15:38;;;;;;;;;;;;;;;12.76;74.68;95533.00;4977329;28;959;-49
2022/05/01 04:18:05;;;;;;;;;;;;;;;12.65;75.60;95528.81;4977083;28;979;-49
2022/05/01 04:20:32;;;;;;;;;;;;;;;12.54;75.43;95528.25;4977246;28;1027;-49
2022/05/01 04:22:59;;;;;;;;;;;;;;;12.60;75.60;95533.00;4977198;28;1062;-49
2022/05/01 04:25:26;;;;;;;;;;;;;;;12.71;75.32;95530.00;4976914;28;1163;-50
2022/05/01 04:27:55;;;;;;;;;;;;;;;12.78;75.18;95538.22;4976906;28;1246;-50
2022/05/01 04:30:22;;;;;;;;;;;;;;;12.87;74.61;95531.84;4977070;28;970;-50
2022/05/01 04:32:49;;;;;;;;;;;;;;;12.85;75.40;95537.38;4976640;28;1903;-50
2022/05/01 04:35:23;;;;;;;;;;;;;;;12.81;75.60;95535.22;4976823;28;1192;-50
2022/05/01 04:37:50;;;;;;;;;;;;;;;12.83;75.99;95542.09;4976707;28;1030;-50
2022/05/01 04:40:16;;;;;;;;;;;;;;;12.86;75.03;95540.91;4976823;28;1063;-49
2022/05/01 04:42:42;;;;;;;;;;;;;;;12.83;75.92;95538.56;4976614;28;1092;-50
2022/05/01 04:45:10;;;;;;;;;;;;;;;12.82;75.43;95536.88;4977043;28;972;-49
2022/05/01 04:47:36;;;;;;;;;;;;;;;12.83;75.15;95539.41;4976202;28;1032;-50
2022/05/01 04:50:02;;;;;;;;;;;;;;;12.79;73.51;95540.75;4976908;28;1199;-48
2022/05/01 04:52:28;;;;;;;;;;;;;;;12.84;73.56;95540.22;4976241;28;1914;-48
2022/05/01 04:54:54;;;;;;;;;;;;;;;12.81;73.43;95545.94;4976804;28;1001;-49
2022/05/01 04:57:20;;;;;;;;;;;;;;;12.84;74.08;95542.91;4976308;28;977;-49
2022/05/01 04:59:46;;;;;;;;;;;;;;;12.89;73.47;95545.94;4976313;28;1095;-49
2022/05/01 05:02:12;;;;;;;;;;;;;;;12.99;73.26;95551.97;4976304;28;1021;-50
2022/05/01 05:04:38;;;;;;;;;;;;;;;13.12;72.41;95554.19;4976347;28;1013;-50
2022/05/01 05:07:04;;;;;;;;;;;;;;;13.14;72.07;95556.72;4976013;28;1064;-50
2022/05/01 05:12:15;;;;;;;;;;;;;;;13.17;71.38;95559.06;4976095;28;1914;-50
2022/05/01 05:14:41;;;;;;;;;;;;;;;12.98;71.54;95555.69;4976282;28;974;-50
2022/05/01 05:17:09;;;;;;;;;;;;;;;12.97;72.04;95556.69;4975256;28;1017;-50
2022/05/01 05:19:36;;;;;;;;;;;;;;;12.93;71.70;95555.34;4975336;28;1068;-50
2022/05/01 05:22:03;;;;;;;;;;;;;;;12.95;71.79;95547.97;4975953;28;1063;-50
2022/05/01 05:24:29;;;;;;;;;;;;;;;12.86;72.81;95544.44;4976178;28;974;-50
2022/05/01 05:26:56;;;;;;;;;;;;;;;12.89;72.75;95540.56;4975722;28;1206;-50
2022/05/01 05:29:22;;;;;;;;;;;;;;;12.94;72.83;95554.34;4975842;28;1096;-50
2022/05/01 05:31:48;;;;;;;;;;;;;;;12.99;72.27;95549.31;4975635;28;1910;-49
2022/05/01 05:34:14;;;;;;;;;;;;;;;12.98;72.94;95553.00;4975927;28;1053;-50
2022/05/01 05:36:40;;;;;;;;;;;;;;;13.00;72.82;95547.47;4975813;28;1038;-50
2022/05/01 05:39:07;;;;;;;;;;;;;;;13.11;72.99;95551.66;4975891;28;1058;-50
2022/05/01 05:41:33;;;;;;;;;;;;;;;13.17;72.84;95561.75;4974484;28;996;-50
2022/05/01 05:43:59;;;;;;;;;;;;;;;13.19;73.13;95552.50;4975689;28;1046;-49
2022/05/01 05:46:25;;;;;;;;;;;;;;;13.15;72.87;95561.91;4975624;28;1065;-49
2022/05/01 05:48:51;;;;;;;;;;;;;;;13.17;72.71;95561.75;4975315;28;1013;-50
2022/05/01 05:51:17;;;;;;;;;;;;;;;13.23;72.96;95569.97;4975219;28;1991;-50
2022/05/01 05:53:43;;;;;;;;;;;;;;;13.39;72.58;95566.50;4975608;28;1026;-50
2022/05/01 05:56:09;;;;;;;;;;;;;;;13.32;73.72;95570.84;4975671;28;979;-50
2022/05/01 05:58:35;;;;;;;;;;;;;;;13.25;74.16;95573.31;4975114;28;1123;-50
2022/05/01 06:01:01;;;;;;;;;;;;;;;13.26;74.29;95566.09;4975331;28;1069;-50
2022/05/01 06:03:28;;;;;;;;;;;;;;;13.19;73.59;95578.53;4975154;28;1045;-49
2022/05/01 06:05:54;;;;;;;;;;;;;;;13.23;74.16;95575.34;4975560;28;1056;-49
2022/05/01 06:08:20;;;;;;;;;;;;;;;13.22;72.94;95572.81;4975137;28;1073;-50
2022/05/01 06:10:46;;;;;;;;;;;;;;;13.23;73.17;95577.19;4975147;28;1091;-50
2022/05/01 06:13:12;;;;;;;;;;;;;;;13.38;71.45;95572.03;4974864;28;1971;-50
2022/05/01 06:15:38;;;;;;;;;;;;;;;13.42;68.61;95574.19;4975288;28;1029;-49
2022/05/01 06:18:04;;;;;;;;;;;;;;;13.39;68.93;95571.00;4974713;28;1013;-49
2022/05/01 06:20:30;;;;;;;;;;;;;;;13.44;70.13;95565.97;4975114;28;1020;-50
2022/05/01 06:22:56;;;;;;;;;;;;;;;13.58;70.79;95572.50;4975077;28;969;-50
2022/05/01 06:25:23;;;;;;;;;;;;;;;13.55;68.94;95573.69;4975024;28;1865;-50
2022/05/01 06:27:49;;;;;;;;;;;;;;;13.55;68.68;95578.22;4974737;28;1227;-49
2022/05/01 06:30:15;;;;;;;;;;;;;;;13.52;67.96;95574.03;4973347;28;1030;-51
2022/05/01 06:32:42;;;;;;;;;;;;;;;13.42;68.23;95576.06;4974650;28;1967;-50
2022/05/01 06:35:09;;;;;;;;;;;;;;;13.40;67.68;95581.59;4974772;28;1084;-51
2022/05/01 06:37:36;;;;;;;;;;;;;;;13.42;68.51;95578.72;4974732;28;1052;-51
2022/05/01 06:40:04;;;;;;;;;;;;;;;13.48;68.15;95581.56;4974541;28;1041;-51
2022/05/01 06:42:30;;;;;;;;;;;;;;;13.58;67.88;95578.75;4974659;28;997;-50
2022/05/01 06:44:56;;;;;;;;;;;;;;;13.68;66.92;95586.63;4974499;28;970;-50
2022/05/01 06:47:22;;;;;;;;;;;;;;;13.77;65.75;95590.13;4974480;28;1041;-50
2022/05/01 06:49:48;;;;;;;;;;;;;;;13.94;67.01;95582.88;4974643;28;1081;-50
2022/05/01 06:52:23;;;;;;;;;;;;;;;13.97;68.67;95582.53;4974439;28;2005;-50
2022/05/01 06:54:50;;;;;;;;;;;;;;;14.00;68.26;95584.84;4974273;28;1076;-50
2022/05/01 06:57:16;;;;;;;;;;;;;;;14.00;68.03;95590.25;4974422;28;1021;-50
2022/05/01 06:59:42;;;;;;;;;;;;;;;14.02;68.09;95589.06;4974756;28;1076;-50
2022/05/01 07:02:08;;;;;;;;;;;;;;;13.92;67.11;95587.56;4974212;28;1104;-51
2022/05/01 07:04:34;;;;;;;;;;;;;;;13.89;67.11;95588.78;4974457;28;965;-51
2022/05/01 07:07:00;;;;;;;;;;;;;;;14.01;67.34;95589.25;4974666;28;1062;-51
2022/05/01 07:09:26;;;;;;;;;;;;;;;14.06;67.54;95592.25;4974397;28;1052;-50
2022/05/01 07:11:52;;;;;;;;;;;;;;;14.24;67.08;95595.53;4974276;28;1903;-51
2022/05/01 07:14:18;;;;;;;;;;;;;;;14.27;67.07;95593.56;4974119;28;1008;-51
2022/05/01 07:16:47;;;;;;;;;;;;;;;14.37;66.28;95594.19;4974434;28;1049;-51
2022/05/01 07:19:14;;;;;;;;;;;;;;;14.25;66.92;95591.88;4974092;28;1016;-50
2022/05/01 07:21:40;;;;;;;;;;;;;;;14.27;65.35;95598.94;4974460;28;1117;-50
2022/05/01 07:24:06;;;;;;;;;;;;;;;14.24;66.92;95595.53;4974366;28;1020;-50
2022/05/01 07:26:35;;;;;;;;;;;;;;;14.39;66.17;95594.84;4973966;28;1247;-51
2022/05/01 07:29:02;;;;;;;;;;;;;;;14.29;65.89;95599.59;4973894;28;1053;-51
2022/05/01 07:31:28;;;;;;;;;;;;;;;14.18;65.75;95593.56;4973722;28;1989;-51
2022/05/01 07:33:55;;;;;;;;;;;;;;;14.24;65.89;95600.09;4973903;28;1017;-51
2022/05/01 07:36:21;;;;;;;;;;;;;;;14.33;66.28;95592.84;4973941;28;1094;-51
2022/05/01 07:38:48;;;;;;;;;;;;;;;14.47;65.26;95602.03;4973962;28;1009;-50
2022/05/01 07:41:16;;;;;;;;;;;;;;;14.44;66.53;95600.53;4975297;28;1053;-50
2022/05/01 07:43:43;;;;;;;;;;;;;;;14.45;66.84;95602.22;4977944;28;1029;-51
2022/05/01 07:46:09;;;;;;;;;;;;;;;14.33;66.15;95598.22;4977731;28;1034;-50
2022/05/01 07:48:35;;;;;;;;;;;;;;;14.28;66.22;95603.28;4977663;28;973;-51
2022/05/01 07:51:02;;;;;;;;;;;;;;;14.38;66.11;95598.53;4977591;28;1044;-51
2022/05/01 07:53:28;;;;;;;;;;;;;;;14.55;65.46;95602.84;4977772;28;1989;-50
2022/05/01 07:55:56;;;;;;;;;;;;;;;14.68;65.91;95599.63;4977728;28;1044;-51
2022/05/01 07:58:22;;;;;;;;;;;;;;;14.70;66.41;95607.50;4977445;28;971;-49
2022/05/01 08:00:49;;;;;;;;;;;;;;;14.77;66.43;95603.94;4977234;28;1211;-49
2022/05/01 08:06:04;;;;;;;;;;;;;;;14.84;65.24;95604.94;4958381;28;1149;-50
2022/05/01 08:08:33;;;;;;;;;;;;;;;14.71;65.96;95604.66;4977627;28;1045;-50
2022/05/01 08:11:00;;;;;;;;;;;;;;;14.69;65.32;95603.16;4977309;28;1046;-49
2022/05/01 08:13:26;;;;;;;;;;;;;;;14.69;65.86;95603.16;4977418;28;1910;-49
2022/05/01 08:15:52;;;;;;;;;;;;;;;14.79;64.66;95598.41;4975831;28;1206;-50
2022/05/01 08:21:07;;;;;;;;;;;;;;;15.16;64.59;95589.59;4977022;28;1010;-50
2022/05/01 08:23:38;;;;;;;;;;;;;;;15.26;63.46;95589.34;4977108;28;980;-50
2022/05/01 08:26:07;;;;;;;;;;;;;;;15.34;63.91;95588.44;4977081;28;1155;-50
2022/05/01 08:28:35;;;;;;;;;;;;;;;15.36;63.04;95584.53;4977283;28;1012;-49
2022/05/01 08:31:01;;;;;;;;;;;;;;;15.43;61.88;95579.28;4976744;28;1036;-49
2022/05/01 08:33:27;;;;;;;;;;;;;;;15.33;61.27;95576.84;4976814;28;1911;-49
2022/05/01 08:35:54;;;;;;;;;;;;;;;15.58;61.14;95571.25;4975618;28;1042;-49
2022/05/01 08:38:20;;;;;;;;;;;;;;;15.79;60.43;95573.28;4976702;28;1048;-50
2022/05/01 08:40:47;;;;;;;;;;;;;;;15.84;59.63;95572.72;4977043;28;1050;-50
2022/05/01 08:43:15;;;;;;;;;;;;;;;15.84;58.75;95568.19;4976952;28;973;-50
2022/05/01 08:45:53;;;;;;;;;;;;;;;15.89;59.63;95564.94;4976402;28;919;-50
2022/05/01 08:48:25;;;;;;;;;;;;;;;16.14;59.50;95571.75;4976525;28;970;-50
2022/05/01 08:50:52;;;;;;;;;;;;;;;16.35;58.66;95571.00;4976475;28;1037;-50
2022/05/01 08:53:18;;;;;;;;;;;;;;;16.41;59.30;95572.13;4976608;28;1987;-50
2022/05/01 08:55:47;;;;;;;;;;;;;;;16.45;59.19;95557.22;4976696;28;1050;-49
2022/05/01 08:58:14;;;;;;;;;;;;;;;16.52;58.26;95576.19;4976625;28;1047;-49
2022/05/01 09:00:41;;;;;;;;;;;;;;;16.62;58.30;95565.09;4976236;28;959;-49
2022/05/01 09:03:07;;;;;;;;;;;;;;;16.40;56.47;95565.03;4976340;28;1072;-50
2022/05/01 09:05:33;;;;;;;;;;;;;;;16.50;58.48;95568.28;4976101;28;1013;-50
2022/05/01 09:07:59;;;;;;;;;;;;;;;16.54;57.41;95560.63;4976591;28;975;-49
2022/05/01 09:10:26;;;;;;;;;;;;;;;16.48;56.30;95564.94;4976084;28;1870;-50
2022/05/01 09:12:53;;;;;;;;;;;;;;;16.47;56.45;95565.97;4976180;28;1910;-50
2022/05/01 09:15:33;;;;;;;;;;;;;;;16.52;57.78;95558.16;4975836;28;1037;-49
2022/05/01 09:18:08;;;;;;;;;;;;;;;16.63;56.80;95553.28;4976170;28;1014;-49
2022/05/01 09:20:39;;;;;;;;;;;;;;;16.72;56.00;95550.28;4976082;28;1033;-49
2022/05/01 09:23:06;;;;;;;;;;;;;;;16.66;56.20;95550.22;4976407;28;981;-49
2022/05/01 09:25:32;;;;;;;;;;;;;;;16.64;54.86;95539.59;4975795;28;1159;-49
2022/05/01 09:27:59;;;;;;;;;;;;;;;16.52;56.40;95543.81;4975892;28;1084;-50
2022/05/01 09:30:44;;;;;;;;;;;;;;;16.55;55.99;95535.34;4975771;28;1004;-49
2022/05/01 09:33:20;;;;;;;;;;;;;;;16.58;55.63;95535.78;4974806;28;1983;-50
2022/05/01 09:35:47;;;;;;;;;;;;;;;16.47;55.94;95530.06;4975661;28;1061;-50
2022/05/01 09:38:16;;;;;;;;;;;;;;;16.53;56.93;95529.28;4976113;28;1063;-50
2022/05/01 09:40:47;;;;;;;;;;;;;;;16.58;56.66;95532.28;4975915;28;1056;-49
2022/05/01 09:43:36;;;;;;;;;;;;;;;16.63;54.99;95527.13;4975972;28;1005;-50
2022/05/01 09:46:12;;;;;;;;;;;;;;;16.67;55.70;95522.19;4967878;28;1923;-50
2022/05/01 09:48:39;;;;;;;;;;;;;;;16.65;55.26;95522.38;4975585;28;1132;-50
2022/05/01 09:51:15;;;;;;;;;;;;;;;16.69;56.00;95520.13;4975319;28;1037;-50
2022/05/01 09:53:44;;;;;;;;;;;;;;;16.72;56.63;95508.97;4975391;28;1915;-49
2022/05/01 09:56:11;;;;;;;;;;;;;;;16.82;56.68;95519.44;4975244;28;1017;-49
2022/05/01 09:58:42;;;;;;;;;;;;;;;16.89;55.77;95513.13;4975426;28;977;-50
2022/05/01 10:01:10;;;;;;;;;;;;;;;17.08;55.31;95502.72;4975234;28;1049;-49
2022/05/01 10:03:39;;;;;;;;;;;;;;;17.23;55.60;95503.47;4974800;28;962;-50
2022/05/01 10:06:06;;;;;;;;;;;;;;;17.43;55.67;95500.94;4975049;28;1021;-49
2022/05/01 10:08:32;;;;;;;;;;;;;;;17.61;55.54;95495.06;4975468;28;982;-50
2022/05/01 10:10:59;;;;;;;;;;;;;;;17.59;53.25;95496.31;4975201;28;975;-50
2022/05/01 10:13:26;;;;;;;;;;;;;;;17.63;54.96;95492.16;4975088;28;1991;-50
2022/05/01 10:15:52;;;;;;;;;;;;;;;17.49;53.69;95489.38;4975129;28;975;-50
2022/05/01 10:18:19;;;;;;;;;;;;;;;17.40;54.92;95489.72;4974816;28;1050;-50
2022/05/01 10:20:45;;;;;;;;;;;;;;;17.41;56.06;95486.78;4975208;28;1051;-50
2022/05/01 10:23:12;;;;;;;;;;;;;;;17.45;55.11;95482.66;4975080;28;1002;-50
2022/05/01 10:25:40;;;;;;;;;;;;;;;17.41;56.09;95480.56;4974793;28;1983;-50
2022/05/01 10:28:12;;;;;;;;;;;;;;;17.25;56.17;95476.28;4974740;28;1111;-50
2022/05/01 10:33:34;;;;;;;;;;;;;;;17.20;56.71;95468.72;4974682;28;1906;-50
2022/05/01 10:36:03;;;;;;;;;;;;;;;17.16;56.59;95475.56;4974742;28;1963;-49
2022/05/01 10:38:48;;;;;;;;;;;;;;;17.05;56.31;95467.97;4974559;28;1020;-50
2022/05/01 10:41:16;;;;;;;;;;;;;;;16.95;56.95;95465.59;4974677;28;1858;-50
2022/05/01 10:43:52;;;;;;;;;;;;;;;16.90;56.95;95466.19;4974425;28;1099;-49
2022/05/01 10:46:18;;;;;;;;;;;;;;;16.87;57.26;95465.75;4974778;28;984;-50
2022/05/01 10:48:44;;;;;;;;;;;;;;;16.85;57.50;95459.69;4974525;28;967;-50
2022/05/01 10:51:36;;;;;;;;;;;;;;;16.87;57.73;95461.16;4974731;28;1009;-49
2022/05/01 10:54:17;;;;;;;;;;;;;;;16.85;57.44;95454.28;4974526;28;1081;-50
2022/05/01 10:56:44;;;;;;;;;;;;;;;16.89;57.31;95456.41;4974583;28;1125;-49
2022/05/01 10:59:29;;;;;;;;;;;;;;;16.90;57.97;95457.22;4974725;28;1053;-50
2022/05/01 11:02:03;;;;;;;;;;;;;;;16.91;57.96;95448.94;4974579;28;1026;-50
2022/05/01 11:04:32;;;;;;;;;;;;;;;16.99;57.95;95445.28;4974601;28;1001;-49
2022/05/01 11:06:59;;;;;;;;;;;;;;;17.02;57.65;95444.91;4974527;28;1065;-49
2022/05/01 11:09:25;;;;;;;;;;;;;;;17.02;57.12;95444.91;4974301;28;1146;-50
2022/05/01 11:11:59;;;;;;;;;;;;;;;17.00;57.30;95436.16;4974342;28;1906;-50
2022/05/01 11:14:41;;;;;;;;;;;;;;;17.02;57.17;95438.66;4974245;28;1057;-49
2022/05/01 11:17:08;;;;;;;;;;;;;;;17.18;56.68;95438.38;4976914;28;958;-50
2022/05/01 11:19:45;;;;;;;;;;;;;;;17.24;56.63;95437.59;4978264;28;967;-49
2022/05/01 11:22:14;;;;;;;;;;;;;;;17.20;57.77;95430.09;4978067;28;1033;-49
2022/05/01 11:24:41;;;;;;;;;;;;;;;17.07;57.75;95425.38;4978088;28;1858;-49
2022/05/01 11:27:10;;;;;;;;;;;;;;;17.11;57.23;95427.53;4977793;28;1155;-50
2022/05/01 11:29:37;;;;;;;;;;;;;;;17.20;58.23;95421.97;4977904;28;1088;-49
2022/05/01 11:32:16;;;;;;;;;;;;;;;17.27;58.56;95420.16;4977801;28;1914;-49
2022/05/01 11:34:47;;;;;;;;;;;;;;;17.28;57.64;95422.69;4978032;28;1025;-50
2022/05/01 11:37:13;;;;;;;;;;;;;;;17.26;57.42;95419.31;4978050;28;1016;-50
2022/05/01 11:39:46;;;;;;;;;;;;;;;17.33;58.02;95416.66;4977860;28;1052;-49
2022/05/01 11:42:21;;;;;;;;;;;;;;;17.40;57.96;95408.63;4977783;28;1203;-49
2022/05/01 11:44:48;;;;;;;;;;;;;;;17.33;56.96;95416.66;4977851;28;1050;-49
2022/05/01 11:47:15;;;;;;;;;;;;;;;17.32;57.69;95407.75;4978028;28;975;-50
2022/05/01 11:49:41;;;;;;;;;;;;;;;17.33;57.40;95408.56;4977408;28;1038;-50
2022/05/01 11:52:07;;;;;;;;;;;;;;;17.29;58.06;95405.41;4977797;28;2045;-50
2022/05/01 11:54:35;;;;;;;;;;;;;;;17.35;58.85;95401.09;4977462;28;1041;-50
2022/05/01 12:02:31;;;;;;;;;;;;;;;17.36;58.32;95389.25;4977700;28;975;-50
2022/05/01 12:04:58;;;;;;;;;;;;;;;17.37;58.08;95385.50;4977449;28;961;-49
2022/05/01 12:07:24;;;;;;;;;;;;;;;17.36;58.27;95383.84;4977387;28;1060;-50
2022/05/01 12:09:51;;;;;;;;;;;;;;;17.34;57.40;95384.03;4977482;28;966;-49
2022/05/01 12:12:19;;;;;;;;;;;;;;;17.25;57.88;95382.53;4977512;28;1910;-49
2022/05/01 12:14:46;;;;;;;;;;;;;;;17.18;57.85;95378.94;4977089;28;1029;-50
2022/05/01 12:17:16;;;;;;;;;;;;;;;17.23;58.36;95376.47;4977488;28;959;-49
2022/05/01 12:19:43;;;;;;;;;;;;;;;17.25;58.67;95365.47;4977217;28;958;-49
2022/05/01 12:22:11;;;;;;;;;;;;;;;17.34;58.41;95365.13;4977514;28;1018;-49
2022/05/01 12:24:37;;;;;;;;;;;;;;;17.42;57.60;95356.03;4977055;28;1001;-49
2022/05/01 12:27:03;;;;;;;;;;;;;;;17.37;57.60;95355.78;4976552;28;1218;-50
2022/05/01 12:29:30;;;;;;;;;;;;;;;17.48;57.32;95355.22;4976772;28;1104;-50
2022/05/01 12:32:00;;;;;;;;;;;;;;;17.52;57.65;95352.97;4976968;28;1985;-51
2022/05/01 12:34:27;;;;;;;;;;;;;;;17.35;56.64;95342.47;4976674;28;1029;-51
2022/05/01 12:36:54;;;;;;;;;;;;;;;17.30;57.91;95344.94;4977127;28;1049;-50
2022/05/01 12:39:22;;;;;;;;;;;;;;;17.45;58.44;95341.28;4976570;28;1017;-51
2022/05/01 12:45:09;;;;;;;;;;;;;;;17.32;56.78;95332.06;4976550;28;1872;-50
2022/05/01 12:47:37;;;;;;;;;;;;;;;17.45;57.51;95331.28;4976672;28;970;-50
2022/05/01 12:50:04;;;;;;;;;;;;;;;17.53;56.69;95328.44;4976805;28;1115;-50
2022/05/01 12:52:31;;;;;;;;;;;;;;;17.56;57.23;95336.13;4976476;28;1919;-50
2022/05/01 12:55:04;;;;;;;;;;;;;;;17.52;57.23;95328.63;4976399;28;1174;-50
2022/05/01 12:57:32;;;;;;;;;;;;;;;17.55;56.69;95326.38;4976322;28;1004;-50
2022/05/01 12:59:58;;;;;;;;;;;;;;;17.69;57.70;95329.97;4976569;28;997;-50
2022/05/01 13:02:24;;;;;;;;;;;;;;;17.72;57.25;95324.16;4976584;28;1057;-51
2022/05/01 13:05:00;;;;;;;;;;;;;;;17.68;57.50;95325.59;4976269;28;1057;-50
2022/05/01 13:07:30;;;;;;;;;;;;;;;17.70;55.79;95326.25;4976309;28;1188;-50
2022/05/01 13:13:09;;;;;;;;;;;;;;;17.58;56.58;95313.47;4976272;28;1906;-50
2022/05/01 13:15:38;;;;;;;;;;;;;;;17.49;56.19;95310.97;4976133;28;998;-50
2022/05/01 13:18:04;;;;;;;;;;;;;;;17.44;56.64;95309.88;4976304;28;968;-50
2022/05/01 13:20:30;;;;;;;;;;;;;;;17.45;56.26;95298.03;4975854;28;1104;-50
2022/05/01 13:22:57;;;;;;;;;;;;;;;17.33;55.93;95301.28;4976441;28;1025;-51
2022/05/01 13:25:23;;;;;;;;;;;;;;;17.34;56.10;95300.28;4975696;28;1163;-50
2022/05/01 13:27:49;;;;;;;;;;;;;;;17.29;56.54;95299.19;4975851;28;1149;-50
2022/05/01 13:30:15;;;;;;;;;;;;;;;17.22;57.08;95301.03;4975747;28;1049;-50
2022/05/01 13:32:41;;;;;;;;;;;;;;;17.26;56.38;95302.28;4975778;28;1910;-50
2022/05/01 13:35:07;;;;;;;;;;;;;;;17.20;56.15;95301.22;4975857;28;997;-51
2022/05/01 13:37:34;;;;;;;;;;;;;;;17.23;57.07;95300.00;4976040;28;1017;-50
2022/05/01 13:45:30;;;;;;;;;;;;;;;17.29;57.18;95305.44;4975672;28;1119;-50